Time;durP1;ratioP1;P1;durP2;ratioP2;P2;SDS_P1;SDS_P2;PMS_P1;PMS_P2;Temp;Humidity;BMP_temperature;BMP_pressure;BME280_temperature;BME280_humidity;BME280_pressure;Samples;Min_cycle;Max_cycle;Signal;HPM_P1;HPM_P2
2024/04/08 00:01:45;;;;;;;7.82;4.07;;;;;;;14.30;87.13;100618.63;4942277;29;20055;-82
2024/04/08 00:04:10;;;;;;;7.75;4.53;;;;;;;14.20;86.93;100589.47;4952038;29;20047;-82
2024/04/08 00:06:37;;;;;;;12.23;4.93;;;;;;;14.14;87.64;100571.44;4953090;29;20055;-78
2024/04/08 00:09:03;;;;;;;9.07;5.03;;;;;;;14.10;87.88;100570.91;4953735;29;20132;-82
2024/04/08 00:11:34;;;;;;;7.72;4.80;;;;;;;14.03;89.54;100571.75;4944809;29;20051;-83
2024/04/08 00:14:19;;;;;;;12.07;5.10;;;;;;;14.01;89.45;100595.00;4941987;29;20044;-82
2024/04/08 00:17:11;;;;;;;9.23;4.72;;;;;;;14.12;88.83;100594.75;4942428;29;20111;-82
2024/04/08 00:19:43;;;;;;;6.47;4.63;;;;;;;14.04;89.11;100592.84;4942839;29;20097;-81
2024/04/08 00:22:15;;;;;;;11.75;5.30;;;;;;;14.05;89.10;100596.34;4944577;29;20044;-81
2024/04/08 00:24:42;;;;;;;10.13;5.28;;;;;;;14.09;88.92;100600.38;4944476;29;20070;-83
2024/04/08 00:27:10;;;;;;;13.07;5.38;;;;;;;14.10;88.71;100610.00;4941742;29;20048;-80
2024/04/08 00:29:38;;;;;;;8.85;5.60;;;;;;;14.06;89.38;100609.50;4934613;29;20122;-83
2024/04/08 00:32:06;;;;;;;13.38;5.68;;;;;;;13.94;89.34;100592.13;4942144;29;20047;-81
2024/04/08 00:34:31;;;;;;;10.73;5.38;;;;;;;13.85;89.69;100590.41;4942707;29;20055;-82
2024/04/08 00:36:58;;;;;;;12.98;5.93;;;;;;;13.65;90.51;100568.50;4942438;29;20414;-79
2024/04/08 00:39:24;;;;;;;10.10;5.85;;;;;;;13.62;90.28;100568.81;4943705;29;20056;-81
2024/04/08 00:41:53;;;;;;;11.90;5.28;;;;;;;13.65;90.12;100571.16;4942066;29;20054;-80
2024/04/08 00:44:23;;;;;;;10.73;5.63;;;;;;;13.69;89.74;100577.00;4941648;29;20059;-83
2024/04/08 00:46:49;;;;;;;10.20;5.45;;;;;;;13.64;89.57;100570.31;4945129;29;20142;-82
2024/04/08 00:49:16;;;;;;;10.20;5.30;;;;;;;13.64;89.06;100580.94;4945864;29;20052;-79
2024/04/08 00:51:52;;;;;;;9.45;5.13;;;;;;;13.59;88.45;100563.81;4946735;29;20047;-83
2024/04/08 00:54:19;;;;;;;10.13;5.68;;;;;;;13.57;88.80;100542.69;4945219;29;20398;-80
2024/04/08 00:56:46;;;;;;;10.18;5.38;;;;;;;13.39;89.93;100520.59;4944135;29;20056;-83
2024/04/08 00:59:13;;;;;;;9.65;4.88;;;;;;;13.40;89.92;100514.31;4944608;29;20417;-83
2024/04/08 01:01:42;;;;;;;11.52;6.35;;;;;;;13.36;89.59;100524.44;4945201;29;20047;-83
2024/04/08 01:04:14;;;;;;;7.95;4.40;;;;;;;13.39;90.00;100539.22;4944836;29;20076;-81
2024/04/08 01:06:45;;;;;;;11.77;4.90;;;;;;;13.50;89.40;100573.53;4944875;29;20131;-82
2024/04/08 01:09:15;;;;;;;10.30;4.80;;;;;;;13.54;89.66;100590.84;4945355;29;20086;-80
2024/04/08 01:11:43;;;;;;;7.68;4.68;;;;;;;13.50;89.31;100593.97;4945109;29;20098;-82
2024/04/08 01:14:09;;;;;;;9.20;4.97;;;;;;;13.60;89.12;100590.22;4944358;29;20173;-81
2024/04/08 01:16:36;;;;;;;6.95;4.53;;;;;;;13.67;88.73;100595.78;4942869;29;20052;-81
2024/04/08 01:19:03;;;;;;;6.53;4.45;;;;;;;13.64;87.42;100582.78;4943745;29;20056;-84
2024/04/08 01:21:32;;;;;;;8.63;5.03;;;;;;;13.64;88.30;100569.50;4945164;29;20048;-80
2024/04/08 01:24:08;;;;;;;13.88;5.32;;;;;;;13.59;88.64;100538.03;4949699;29;20315;-81
2024/04/08 01:26:37;;;;;;;10.55;4.80;;;;;;;13.69;87.08;100524.63;4946654;29;20118;-83
2024/04/08 01:29:08;;;;;;;9.57;5.57;;;;;;;13.73;86.89;100533.97;4948507;29;20320;-85
2024/04/08 01:31:35;;;;;;;8.70;4.97;;;;;;;13.57;87.79;100542.69;4950296;29;20111;-83
2024/04/08 01:34:03;;;;;;;11.32;4.80;;;;;;;13.62;88.44;100551.03;4950352;29;20056;-85
2024/04/08 01:36:39;;;;;;;8.85;4.43;;;;;;;13.51;89.53;100567.22;4941095;29;20123;-81
2024/04/08 01:39:32;;;;;;;8.25;4.60;;;;;;;13.36;90.38;100560.81;4946140;29;20056;-86
2024/04/08 01:42:05;;;;;;;10.23;5.20;;;;;;;13.28;91.01;100555.41;4946653;29;20066;-84
2024/04/08 01:45:09;;;;;;;8.25;5.20;;;;;;;13.25;91.48;100550.41;4931840;29;20044;-83
2024/04/08 01:47:35;;;;;;;9.95;6.25;;;;;;;13.19;91.19;100551.00;4946948;29;20059;-82
2024/04/08 01:50:04;;;;;;;10.80;6.03;;;;;;;13.16;91.23;100541.50;4949952;29;20060;-83
2024/04/08 01:55:30;;;;;;;11.18;6.88;;;;;;;13.00;91.90;100546.69;4939868;29;20573;-82
2024/04/08 01:58:17;;;;;;;11.20;6.68;;;;;;;13.11;91.47;100539.28;4946835;29;20055;-82
2024/04/08 02:00:49;;;;;;;11.75;7.05;;;;;;;13.07;91.31;100532.63;4947446;29;20107;-81
2024/04/08 02:03:14;;;;;;;13.52;6.75;;;;;;;13.04;91.36;100530.28;4947585;29;20067;-82
2024/04/08 02:05:43;;;;;;;12.93;7.75;;;;;;;12.95;92.03;100536.50;4945168;29;20501;-79
2024/04/08 02:08:08;;;;;;;12.38;7.68;;;;;;;12.83;93.78;100521.78;4940517;29;20147;-81
2024/04/08 02:10:37;;;;;;;14.02;7.65;;;;;;;12.85;93.07;100511.81;4943995;29;20140;-78
2024/04/08 02:13:04;;;;;;;9.65;6.78;;;;;;;12.69;93.69;100493.09;4943896;29;20055;-81
2024/04/08 02:15:31;;;;;;;13.02;7.47;;;;;;;12.75;93.39;100505.75;4948763;29;20061;-82
2024/04/08 02:17:59;;;;;;;14.35;8.20;;;;;;;12.83;92.41;100509.31;4949762;29;20063;-81
2024/04/08 02:20:26;;;;;;;11.35;6.90;;;;;;;12.81;93.20;100519.28;4952735;29;20074;-81
2024/04/08 02:22:52;;;;;;;11.77;7.20;;;;;;;12.75;93.48;100524.34;4946751;29;20054;-82
2024/04/08 02:25:20;;;;;;;12.15;6.78;;;;;;;12.75;93.34;100525.19;4950594;29;20051;-83
2024/04/08 02:27:47;;;;;;;11.77;7.10;;;;;;;12.73;93.50;100531.66;4951452;29;20131;-82
2024/04/08 02:30:14;;;;;;;13.75;6.90;;;;;;;12.65;94.01;100532.38;4951205;29;20063;-82
2024/04/08 02:32:42;;;;;;;15.40;8.35;;;;;;;12.58;93.95;100524.16;4945494;29;20126;-83
2024/04/08 02:35:11;;;;;;;12.52;7.88;;;;;;;12.53;94.16;100523.78;4943120;29;20055;-81
2024/04/08 02:37:37;;;;;;;17.02;7.40;;;;;;;12.51;94.34;100520.47;4942272;29;20048;-82
2024/04/08 02:40:05;;;;;;;14.57;8.00;;;;;;;12.46;94.48;100508.63;4943930;29;20099;-83
2024/04/08 02:42:31;;;;;;;14.85;8.43;;;;;;;12.44;94.70;100506.09;4943570;29;20083;-81
2024/04/08 02:45:01;;;;;;;10.77;7.60;;;;;;;12.51;94.21;100499.22;4943971;29;20062;-82
2024/04/08 02:47:29;;;;;;;15.45;8.60;;;;;;;12.54;93.91;100485.63;4944066;29;20102;-82
2024/04/08 02:49:59;;;;;;;14.23;7.90;;;;;;;12.49;93.94;100471.16;4944893;29;20044;-82
2024/04/08 02:52:25;;;;;;;12.45;8.63;;;;;;;12.43;93.84;100467.28;4944154;29;20048;-83
2024/04/08 02:54:52;;;;;;;12.45;8.50;;;;;;;12.32;93.74;100470.13;4942642;29;20083;-80
2024/04/08 02:58:58;;;;;;;12.80;9.40;;;;;;;12.34;94.39;100465.53;5476220;26;20347;-82
2024/04/08 03:01:24;;;;;;;10.82;8.40;;;;;;;12.27;94.25;100456.47;5477006;26;19994;-81
2024/04/08 03:03:52;;;;;;;18.90;11.60;;;;;;;12.21;95.03;100462.41;5461024;26;20007;-83
2024/04/08 03:06:18;;;;;;;17.25;10.27;;;;;;;12.16;95.05;100460.19;5469192;26;20013;-79
2024/04/08 03:08:50;;;;;;;15.23;10.93;;;;;;;12.22;94.86;100448.97;5454126;26;20072;-83
2024/04/08 03:11:16;;;;;;;12.13;8.80;;;;;;;12.12;94.59;100433.13;5452910;21;20026;-78
2024/04/08 03:13:56;;;;;;;16.83;9.57;;;;;;;12.12;94.32;100430.47;5430426;26;20015;-78
2024/04/08 03:16:24;;;;;;;17.13;9.75;;;;;;;12.24;94.45;100451.50;5421335;26;20015;-78
2024/04/08 03:18:53;;;;;;;17.38;10.95;;;;;;;12.23;94.38;100449.81;5424758;26;20004;-77
2024/04/08 03:21:18;;;;;;;18.30;11.73;;;;;;;12.14;94.86;100451.53;5420200;26;20337;-78
2024/04/08 03:23:47;;;;;;;18.48;11.48;;;;;;;12.16;94.98;100452.22;5421375;26;20019;-79
2024/04/08 03:26:14;;;;;;;19.15;11.00;;;;;;;12.07;95.37;100448.66;5419321;26;19999;-78
2024/04/08 03:28:42;;;;;;;16.13;11.68;;;;;;;12.12;95.15;100462.31;5400341;26;20464;-78
2024/04/08 03:31:10;;;;;;;15.90;11.95;;;;;;;12.07;95.43;100464.56;5419777;26;20015;-77
2024/04/08 03:33:41;;;;;;;18.27;11.48;;;;;;;12.17;95.48;100461.84;5425147;26;20031;-77
2024/04/08 03:36:10;;;;;;;17.65;12.32;;;;;;;12.07;95.40;100467.22;5417788;26;20006;-77
2024/04/08 03:38:39;;;;;;;19.05;12.13;;;;;;;12.09;95.58;100459.09;5417343;26;20015;-77
2024/04/08 03:41:08;;;;;;;23.50;13.98;;;;;;;12.05;95.89;100461.22;5419074;26;19999;-77
2024/04/08 03:43:37;;;;;;;18.05;12.40;;;;;;;12.16;95.49;100464.66;5414125;26;20016;-79
2024/04/08 03:46:05;;;;;;;20.55;12.75;;;;;;;12.12;95.81;100458.81;5413422;26;19999;-78
2024/04/08 03:48:33;;;;;;;20.85;13.32;;;;;;;12.19;95.16;100451.94;5407469;26;20339;-79
2024/04/08 03:51:09;;;;;;;22.35;12.73;;;;;;;12.30;95.14;100445.59;5411184;26;20004;-79
2024/04/08 03:53:37;;;;;;;24.45;14.23;;;;;;;12.36;95.18;100432.53;5390242;26;20072;-78
2024/04/08 03:56:05;;;;;;;22.27;13.75;;;;;;;12.38;94.55;100424.44;5421670;26;20018;-79
2024/04/08 03:58:33;;;;;;;20.92;14.35;;;;;;;12.24;94.64;100409.03;5416967;26;20033;-79
2024/04/08 04:00:59;;;;;;;22.33;14.20;;;;;;;12.12;95.99;100406.59;5415536;26;20014;-78
2024/04/08 04:03:28;;;;;;;21.02;14.68;;;;;;;12.11;96.11;100398.78;5417323;26;20000;-78
2024/04/08 04:05:53;;;;;;;25.00;15.13;;;;;;;12.20;95.78;100391.75;5394863;26;20003;-77
2024/04/08 04:08:24;;;;;;;18.40;14.10;;;;;;;12.24;95.36;100393.97;5410454;26;20068;-77
2024/04/08 04:10:50;;;;;;;21.75;15.63;;;;;;;12.18;96.11;100414.94;5389107;26;20003;-77
2024/04/08 04:13:18;;;;;;;26.55;16.33;;;;;;;12.16;96.46;100419.56;5395717;26;20000;-77
2024/04/08 04:15:44;;;;;;;25.50;17.52;;;;;;;12.09;97.30;100422.78;5394674;26;20011;-79
2024/04/08 04:18:12;;;;;;;28.58;18.42;;;;;;;12.13;97.65;100423.34;5400749;26;19999;-78
2024/04/08 04:20:40;;;;;;;25.15;17.25;;;;;;;12.18;96.86;100428.19;5398852;26;20019;-76
2024/04/08 04:23:09;;;;;;;22.80;16.58;;;;;;;12.22;96.68;100427.75;5401374;26;20000;-77
2024/04/08 04:25:37;;;;;;;24.70;16.48;;;;;;;12.26;96.87;100434.44;5396966;26;20451;-76
2024/04/08 04:28:06;;;;;;;23.25;15.60;;;;;;;12.29;96.64;100426.19;5401387;26;19995;-77
2024/04/08 04:30:32;;;;;;;24.95;17.23;;;;;;;12.24;96.26;100430.28;5396269;26;20044;-77
2024/04/08 04:33:01;;;;;;;20.73;16.75;;;;;;;12.22;96.34;100416.31;5402414;26;20004;-78
2024/04/08 04:35:26;;;;;;;22.27;17.02;;;;;;;12.23;96.55;100408.19;5396777;26;20012;-77
2024/04/08 04:37:55;;;;;;;22.20;15.93;;;;;;;12.21;96.31;100412.81;5393092;26;20323;-76
2024/04/08 04:40:21;;;;;;;24.52;15.95;;;;;;;12.19;95.97;100419.25;5390408;26;20442;-77
2024/04/08 04:42:53;;;;;;;21.02;14.77;;;;;;;12.22;96.20;100416.31;5390778;26;20011;-79
2024/04/08 04:45:21;;;;;;;22.77;15.52;;;;;;;12.08;97.03;100423.78;5399974;26;20066;-79
2024/04/08 04:47:49;;;;;;;21.30;15.57;;;;;;;12.09;97.22;100429.91;5391248;26;20015;-79
2024/04/08 04:50:15;;;;;;;23.98;16.55;;;;;;;12.12;97.15;100421.69;5392457;26;20020;-79
2024/04/08 04:52:44;;;;;;;22.70;16.25;;;;;;;12.09;97.35;100428.09;5400375;26;20001;-78
2024/04/08 04:55:10;;;;;;;24.00;17.42;;;;;;;12.14;97.42;100415.25;5399618;26;19999;-78
2024/04/08 04:57:41;;;;;;;23.98;16.52;;;;;;;12.21;97.35;100409.34;5400295;26;20004;-79
2024/04/08 05:00:11;;;;;;;24.85;16.98;;;;;;;12.22;96.89;100422.44;5398052;26;20000;-79
2024/04/08 05:02:39;;;;;;;22.50;16.95;;;;;;;12.28;96.74;100413.06;5400900;26;20011;-79
2024/04/08 05:05:08;;;;;;;22.77;15.95;;;;;;;12.29;96.42;100412.06;5397655;26;20342;-79
2024/04/08 05:07:34;;;;;;;23.30;17.45;;;;;;;12.27;96.38;100408.72;5398159;26;20015;-77
2024/04/08 05:10:02;;;;;;;18.92;16.33;;;;;;;12.27;96.67;100422.81;5404864;26;20003;-79
2024/04/08 05:12:28;;;;;;;22.02;16.90;;;;;;;12.27;96.65;100437.91;5394370;26;20343;-78
2024/04/08 05:14:56;;;;;;;26.98;17.90;;;;;;;12.22;96.73;100440.19;5403495;26;19995;-79
2024/04/08 05:17:25;;;;;;;27.70;18.33;;;;;;;12.28;96.31;100440.44;5399991;26;20011;-79
2024/04/08 05:19:55;;;;;;;26.00;17.38;;;;;;;12.40;96.03;100449.00;5400277;26;20411;-79
2024/04/08 05:22:23;;;;;;;28.50;19.30;;;;;;;12.43;95.78;100442.56;5400873;26;19999;-79
2024/04/08 05:24:51;;;;;;;24.00;17.92;;;;;;;12.50;95.45;100441.81;5395439;26;20425;-80
2024/04/08 05:27:17;;;;;;;23.50;17.30;;;;;;;12.56;94.65;100440.38;5396149;26;20007;-78
2024/04/08 05:29:45;;;;;;;24.73;17.70;;;;;;;12.52;94.12;100434.53;5392440;26;20018;-79
2024/04/08 05:32:11;;;;;;;25.05;17.35;;;;;;;12.56;95.06;100433.25;5388995;26;20016;-80
2024/04/08 05:34:42;;;;;;;25.67;17.23;;;;;;;12.70;94.37;100425.72;5398702;26;20004;-78
2024/04/08 05:37:07;;;;;;;27.27;17.60;;;;;;;12.83;92.93;100429.66;5388888;26;20037;-79
2024/04/08 05:39:36;;;;;;;23.63;17.08;;;;;;;12.87;92.89;100427.53;5388267;26;20007;-78
2024/04/08 05:42:01;;;;;;;23.60;18.10;;;;;;;12.88;92.80;100418.56;5382486;26;20072;-77
2024/04/08 05:44:30;;;;;;;25.55;17.00;;;;;;;13.12;93.24;100416.06;5382667;26;20001;-80
2024/04/08 05:46:56;;;;;;;24.67;17.00;;;;;;;13.29;91.97;100416.22;5383676;26;20000;-79
2024/04/08 05:49:24;;;;;;;24.40;16.23;;;;;;;13.53;89.63;100413.72;5372450;26;20137;-80
2024/04/08 05:51:52;;;;;;;19.85;15.20;;;;;;;13.74;88.97;100415.13;5384138;26;20016;-80
2024/04/08 05:54:20;;;;;;;21.88;15.50;;;;;;;13.81;88.38;100414.31;5381819;26;20019;-79
2024/04/08 05:56:46;;;;;;;23.60;16.30;;;;;;;13.90;88.37;100428.50;5380465;26;20000;-79
2024/04/08 05:59:14;;;;;;;21.48;15.13;;;;;;;13.99;88.28;100422.22;5380837;26;20004;-77
2024/04/08 06:01:40;;;;;;;21.77;15.30;;;;;;;14.01;87.45;100420.19;5381648;26;20000;-79
2024/04/08 06:04:10;;;;;;;19.95;15.10;;;;;;;13.89;88.96;100426.84;5381462;26;20004;-79
2024/04/08 06:06:36;;;;;;;20.23;14.35;;;;;;;13.79;89.15;100418.97;5382719;26;20295;-77
2024/04/08 06:09:08;;;;;;;25.00;16.42;;;;;;;13.90;89.34;100409.88;5378426;26;20015;-77
2024/04/08 06:11:34;;;;;;;21.27;15.52;;;;;;;14.08;87.75;100405.28;5378584;26;20429;-78
2024/04/08 06:14:02;;;;;;;24.70;14.65;;;;;;;14.25;86.97;100407.97;5378664;26;20004;-77
2024/04/08 06:16:28;;;;;;;18.10;14.02;;;;;;;14.69;85.76;100402.38;5364582;26;20168;-78
2024/04/08 06:18:56;;;;;;;19.67;13.25;;;;;;;15.85;81.77;100403.66;5375381;26;20001;-78
2024/04/08 06:21:22;;;;;;;15.55;11.88;;;;;;;17.22;78.01;100401.16;5370375;26;20001;-78
2024/04/08 06:23:50;;;;;;;18.48;12.40;;;;;;;18.04;70.24;100407.25;5380152;26;20019;-79
2024/04/08 06:26:18;;;;;;;17.15;10.98;;;;;;;18.26;71.00;100404.56;5378502;26;20004;-75
2024/04/08 06:28:46;;;;;;;19.77;11.48;;;;;;;19.24;67.06;100394.94;5378178;26;20004;-76
2024/04/08 06:31:12;;;;;;;13.55;10.65;;;;;;;19.60;64.52;100392.94;5377866;26;20011;-77
2024/04/08 06:33:40;;;;;;;14.40;10.43;;;;;;;20.17;62.85;100402.44;5378047;26;20000;-78
2024/04/08 06:36:07;;;;;;;13.82;11.18;;;;;;;20.31;61.29;100394.41;5377786;26;20004;-77
2024/04/08 06:38:36;;;;;;;15.65;10.90;;;;;;;20.69;61.09;100386.63;5374316;26;20340;-78
2024/04/08 06:41:01;;;;;;;13.70;10.13;;;;;;;20.75;59.04;100380.41;5378389;26;20005;-77
2024/04/08 06:43:32;;;;;;;16.77;10.13;;;;;;;20.30;60.23;100364.00;5379464;26;20499;-77
2024/04/08 06:45:58;;;;;;;15.18;10.30;;;;;;;20.13;61.63;100360.06;5378515;26;20000;-78
2024/04/08 06:48:26;;;;;;;18.58;9.18;;;;;;;20.56;58.07;100362.44;5378076;26;20465;-78
2024/04/08 06:50:52;;;;;;;11.63;8.40;;;;;;;20.48;57.43;100371.50;5378096;26;20000;-77
2024/04/08 06:53:22;;;;;;;15.15;9.18;;;;;;;21.04;55.38;100373.81;5378748;26;20465;-77
2024/04/08 06:55:47;;;;;;;12.90;8.30;;;;;;;20.76;58.81;100387.47;5377339;26;20008;-77
2024/04/08 06:58:19;;;;;;;13.40;9.07;;;;;;;20.52;58.85;100393.44;5376688;26;20342;-77
2024/04/08 07:00:48;;;;;;;13.23;9.20;;;;;;;20.47;60.29;100375.22;5377492;26;20359;-78
2024/04/08 07:03:17;;;;;;;14.07;9.10;;;;;;;20.48;58.64;100368.00;5368132;26;20698;-78
2024/04/08 07:05:45;;;;;;;17.48;9.93;;;;;;;18.98;62.50;100361.56;5371678;26;20458;-77
2024/04/08 07:08:13;;;;;;;14.55;9.88;;;;;;;17.88;66.86;100370.78;5376952;26;20073;-76
2024/04/08 07:10:40;;;;;;;14.82;9.65;;;;;;;18.30;66.43;100371.03;5374487;26;20012;-76
2024/04/08 07:13:08;;;;;;;17.13;9.65;;;;;;;19.19;62.88;100380.25;5372883;26;20126;-78
2024/04/08 07:15:34;;;;;;;16.20;9.82;;;;;;;18.42;64.82;100378.38;5377735;26;20351;-78
2024/04/08 07:18:05;;;;;;;14.52;10.40;;;;;;;18.43;65.42;100374.66;5372719;26;20063;-77
2024/04/08 07:20:34;;;;;;;12.60;9.60;;;;;;;18.62;65.93;100373.22;5377683;26;20004;-78
2024/04/08 07:23:03;;;;;;;15.38;9.30;;;;;;;19.62;64.12;100374.75;5377292;26;20000;-78
2024/04/08 07:25:29;;;;;;;12.50;9.25;;;;;;;20.14;60.44;100361.72;5365418;26;20378;-78
2024/04/08 07:27:57;;;;;;;14.57;9.32;;;;;;;20.25;59.78;100362.97;5377012;26;20084;-76
2024/04/08 07:30:23;;;;;;;14.40;9.23;;;;;;;20.53;59.29;100366.34;5376936;26;20430;-77
2024/04/08 07:32:51;;;;;;;13.80;9.50;;;;;;;19.19;61.48;100360.66;5377147;26;20014;-78
2024/04/08 07:35:21;;;;;;;12.45;8.15;;;;;;;18.30;64.51;100363.00;5378407;26;20016;-78
2024/04/08 07:37:49;;;;;;;12.10;8.45;;;;;;;18.02;65.35;100378.97;5376393;26;20004;-78
2024/04/08 07:40:15;;;;;;;12.32;7.70;;;;;;;18.26;64.21;100375.97;5377200;26;20012;-79
2024/04/08 07:42:44;;;;;;;13.63;8.82;;;;;;;17.93;65.70;100373.72;5381992;26;20004;-79
2024/04/08 07:45:11;;;;;;;15.25;9.50;;;;;;;17.64;67.33;100369.25;5384606;26;19996;-79
2024/04/08 07:47:39;;;;;;;13.50;10.15;;;;;;;17.91;67.65;100372.28;5378621;26;20440;-78
2024/04/08 07:50:06;;;;;;;13.48;9.30;;;;;;;18.90;64.08;100369.75;5384055;26;20395;-79
2024/04/08 07:52:39;;;;;;;14.60;8.65;;;;;;;19.45;64.14;100365.34;5369045;26;20000;-79
2024/04/08 07:55:05;;;;;;;14.93;9.18;;;;;;;19.27;62.87;100365.88;5380517;26;20012;-78
2024/04/08 07:57:33;;;;;;;15.40;8.85;;;;;;;19.37;61.97;100369.00;5379262;26;20004;-79
2024/04/08 07:59:59;;;;;;;15.57;9.23;;;;;;;18.32;65.08;100374.38;5377710;26;20004;-79
2024/04/08 08:02:29;;;;;;;12.82;8.85;;;;;;;18.55;64.62;100372.31;5379183;26;20073;-79
2024/04/08 08:04:55;;;;;;;12.95;8.77;;;;;;;18.36;65.23;100357.72;5374994;26;20419;-79
2024/04/08 08:07:23;;;;;;;12.55;8.80;;;;;;;18.68;64.90;100352.84;5378305;26;20020;-79
2024/04/08 08:09:54;;;;;;;15.88;9.82;;;;;;;18.69;63.53;100349.97;5375284;26;20015;-78
2024/04/08 08:12:22;;;;;;;11.45;9.23;;;;;;;18.88;63.30;100358.38;5370108;26;20073;-79
2024/04/08 08:14:52;;;;;;;15.15;9.70;;;;;;;18.58;65.04;100371.94;5382909;26;20015;-79
2024/04/08 08:17:21;;;;;;;16.25;10.13;;;;;;;18.65;64.69;100367.44;5367308;26;20466;-79
2024/04/08 08:19:51;;;;;;;14.95;10.40;;;;;;;18.37;68.02;100359.38;5373583;26;20003;-79
2024/04/08 08:22:19;;;;;;;17.00;10.55;;;;;;;18.24;66.53;100359.25;5383890;26;20131;-79
2024/04/08 08:24:47;;;;;;;17.40;10.70;;;;;;;18.73;65.36;100368.38;5376428;26;20007;-79
2024/04/08 08:27:18;;;;;;;14.40;10.40;;;;;;;19.35;64.60;100359.53;5382537;26;20001;-78
2024/04/08 08:29:52;;;;;;;18.98;10.05;;;;;;;19.85;62.56;100360.19;5376110;26;20548;-78
2024/04/08 08:32:20;;;;;;;18.10;10.13;;;;;;;20.18;61.46;100350.38;5382093;26;19997;-78
2024/04/08 08:34:46;;;;;;;17.52;11.48;;;;;;;19.97;61.30;100358.56;5375634;26;20005;-78
2024/04/08 08:37:14;;;;;;;18.70;12.70;;;;;;;18.83;64.55;100358.13;5374031;26;20004;-78
2024/04/08 08:39:40;;;;;;;18.50;13.50;;;;;;;19.43;63.33;100349.44;5367642;26;20362;-77
2024/04/08 08:42:10;;;;;;;18.60;14.45;;;;;;;19.97;60.44;100350.53;5379921;26;20019;-77
2024/04/08 08:44:44;;;;;;;16.38;13.65;;;;;;;19.64;61.33;100348.56;5379785;26;19996;-77
2024/04/08 08:47:12;;;;;;;18.83;13.55;;;;;;;19.57;63.10;100344.97;5379568;26;20016;-78
2024/04/08 08:49:38;;;;;;;21.63;15.15;;;;;;;18.75;63.70;100360.94;5380741;26;20011;-77
2024/04/08 08:52:10;;;;;;;24.20;17.63;;;;;;;18.87;64.82;100362.91;5381497;26;20000;-77
2024/04/08 08:54:39;;;;;;;25.27;16.63;;;;;;;18.67;64.73;100362.75;5380602;26;20015;-77
2024/04/08 08:57:07;;;;;;;23.20;17.00;;;;;;;18.62;65.92;100351.78;5381683;26;20000;-75
2024/04/08 08:59:34;;;;;;;23.05;18.05;;;;;;;19.31;62.87;100358.25;5384715;26;20010;-76
2024/04/08 09:02:07;;;;;;;23.23;17.67;;;;;;;18.80;65.32;100348.66;5385545;26;20018;-79
2024/04/08 09:04:34;;;;;;;21.95;16.73;;;;;;;18.63;65.89;100352.59;5382634;26;20004;-79
2024/04/08 09:07:03;;;;;;;22.48;17.17;;;;;;;18.47;64.86;100340.28;5385378;26;20000;-77
2024/04/08 09:09:28;;;;;;;22.23;16.55;;;;;;;18.61;65.43;100350.09;5380803;26;20462;-77
2024/04/08 09:11:57;;;;;;;23.05;17.40;;;;;;;18.68;65.18;100348.31;5420374;21;20009;-84
2024/04/08 09:14:22;;;;;;;20.02;15.43;;;;;;;19.28;63.58;100345.22;5389529;26;20010;-83
2024/04/08 09:16:52;;;;;;;20.35;14.73;;;;;;;19.42;62.49;100346.94;5395603;26;20023;-82
2024/04/08 09:19:20;;;;;;;19.98;14.25;;;;;;;19.44;63.40;100343.03;5388558;26;20005;-83
2024/04/08 09:21:49;;;;;;;16.27;13.00;;;;;;;19.77;62.15;100328.94;5286218;26;1416418;-83
2024/04/08 09:24:14;;;;;;;21.67;13.18;;;;;;;20.59;60.67;100330.59;5316353;27;20483;-84
2024/04/08 09:26:42;;;;;;;19.00;13.82;;;;;;;20.68;60.72;100331.19;5318231;26;20025;-83
2024/04/08 09:29:08;;;;;;;18.08;13.25;;;;;;;20.76;58.90;100340.91;5318465;27;20002;-83
2024/04/08 09:31:36;;;;;;;21.45;13.43;;;;;;;20.22;59.54;100333.81;5318568;26;20005;-81
2024/04/08 09:34:02;;;;;;;20.65;13.88;;;;;;;20.18;61.78;100328.88;5315987;27;20468;-83
2024/04/08 09:36:35;;;;;;;21.95;14.57;;;;;;;19.74;61.24;100337.44;5317302;26;20002;-82
2024/04/08 09:39:05;;;;;;;21.30;14.93;;;;;;;19.53;63.66;100334.84;5317131;26;20025;-82
2024/04/08 09:41:35;;;;;;;21.77;14.68;;;;;;;20.07;61.98;100337.50;5322148;27;20012;-82
2024/04/08 09:44:12;;;;;;;23.80;14.87;;;;;;;19.47;62.59;100343.69;5324595;26;20001;-84
2024/04/08 09:46:40;;;;;;;22.58;14.57;;;;;;;19.14;63.72;100345.16;5315105;27;20015;-84
2024/04/08 09:49:12;;;;;;;18.10;13.82;;;;;;;19.72;62.04;100339.47;5325406;26;20009;-84
2024/04/08 09:52:32;;;;;;;20.40;13.30;;;;;;;20.10;61.43;100323.69;5326511;26;20002;-81
2024/04/08 09:55:12;;;;;;;14.48;12.55;;;;;;;20.04;61.31;100321.78;5306738;26;20001;-85
2024/04/08 09:57:53;;;;;;;19.27;12.45;;;;;;;20.20;60.47;100324.09;5350711;26;20100;-83
2024/04/08 10:00:25;;;;;;;19.17;13.73;;;;;;;19.72;61.54;100314.47;5312678;26;20053;-83
2024/04/08 10:02:53;;;;;;;19.50;12.98;;;;;;;20.29;61.64;100314.00;5320172;26;20017;-82
2024/04/08 10:05:23;;;;;;;20.70;11.82;;;;;;;20.60;59.38;100307.22;5318057;26;20001;-80
2024/04/08 10:07:50;;;;;;;22.42;13.75;;;;;;;20.32;60.69;100312.75;5316432;26;19998;-83
2024/04/08 10:10:21;;;;;;;23.75;11.20;;;;;;;20.62;59.90;100308.63;5317916;26;20072;-82
2024/04/08 10:12:49;;;;;;;14.03;10.57;;;;;;;20.64;57.17;100303.91;5319968;26;20012;-83
2024/04/08 10:15:18;;;;;;;19.17;10.73;;;;;;;20.73;57.67;100303.69;5316781;26;20009;-81
2024/04/08 10:17:45;;;;;;;18.88;11.75;;;;;;;20.25;57.84;100291.25;5317908;26;20009;-82
2024/04/08 10:20:15;;;;;;;17.10;11.50;;;;;;;19.74;59.42;100296.34;5319650;26;20002;-82
2024/04/08 10:22:41;;;;;;;17.13;10.15;;;;;;;20.06;58.33;100290.19;5322492;26;20020;-82
2024/04/08 10:25:47;;;;;;;17.60;10.27;;;;;;;20.38;59.51;100285.06;5326123;26;20002;-82
2024/04/08 10:28:18;;;;;;;18.50;9.85;;;;;;;20.61;56.82;100290.84;5319098;26;20101;-82
2024/04/08 10:30:48;;;;;;;14.52;8.95;;;;;;;20.91;58.16;100298.47;5318913;27;20017;-82
2024/04/08 10:33:14;;;;;;;17.60;9.85;;;;;;;20.86;58.16;100291.03;5318678;27;20021;-84
2024/04/08 10:35:42;;;;;;;18.92;9.98;;;;;;;20.99;57.21;100295.56;5317972;27;19998;-80
2024/04/08 10:38:08;;;;;;;19.15;10.75;;;;;;;20.74;56.69;100291.88;5319725;27;20016;-83
2024/04/08 10:40:38;;;;;;;16.95;10.05;;;;;;;21.01;57.23;100293.47;5319557;26;20379;-83
2024/04/08 10:43:04;;;;;;;16.75;10.27;;;;;;;20.46;56.77;100292.91;5318688;26;20002;-82
2024/04/08 10:45:35;;;;;;;15.05;9.50;;;;;;;20.59;56.26;100290.25;5320260;26;20024;-83
2024/04/08 10:48:01;;;;;;;15.05;9.60;;;;;;;20.86;57.32;100279.47;5317225;26;20013;-83
2024/04/08 10:50:30;;;;;;;14.98;9.38;;;;;;;21.19;57.19;100282.06;5318404;26;20017;-83
2024/04/08 10:52:56;;;;;;;14.38;9.63;;;;;;;21.25;54.96;100280.38;5318914;26;20092;-83
2024/04/08 10:55:25;;;;;;;14.27;9.45;;;;;;;21.37;56.08;100286.78;5318828;26;20016;-83
2024/04/08 10:57:50;;;;;;;17.63;11.13;;;;;;;20.80;56.17;100274.91;5317297;26;20016;-83
2024/04/08 11:00:19;;;;;;;16.25;10.02;;;;;;;20.59;57.09;100267.91;5318357;26;20013;-84
2024/04/08 11:02:47;;;;;;;22.83;10.75;;;;;;;20.71;57.45;100271.59;5318214;27;20002;-83
2024/04/08 11:05:16;;;;;;;17.98;10.93;;;;;;;21.20;55.56;100260.28;5317722;26;20301;-80
2024/04/08 11:07:42;;;;;;;17.20;12.05;;;;;;;20.59;56.66;100267.91;5318072;26;20009;-83
2024/04/08 11:10:13;;;;;;;18.65;11.52;;;;;;;20.50;56.38;100264.63;5317595;26;20015;-82
2024/04/08 11:12:39;;;;;;;15.80;10.65;;;;;;;20.53;57.52;100271.41;5318143;26;20006;-81
2024/04/08 11:15:09;;;;;;;17.02;9.50;;;;;;;20.77;57.47;100278.03;5317444;26;20019;-83
2024/04/08 11:17:35;;;;;;;14.50;9.95;;;;;;;20.57;56.90;100273.47;5317298;26;20038;-83
2024/04/08 11:20:08;;;;;;;12.65;9.27;;;;;;;20.94;58.04;100276.56;5316275;26;20486;-83
2024/04/08 11:22:34;;;;;;;15.55;9.93;;;;;;;21.47;55.16;100276.38;5305769;27;20016;-83
2024/04/08 11:25:04;;;;;;;13.50;8.82;;;;;;;21.70;55.58;100275.88;5319999;26;19990;-83
2024/04/08 11:27:30;;;;;;;12.95;9.27;;;;;;;21.63;56.95;100269.69;5319293;26;20009;-84